createdAt,value
2018-02-25T00:00:21.214Z,2.67
2018-02-25T00:02:49.422Z,2.67
2018-02-25T00:05:16.878Z,3.00
2018-02-25T00:07:44.386Z,3.57
2018-02-25T00:10:11.840Z,3.37
2018-02-25T00:12:39.298Z,4.20
2018-02-25T00:15:06.742Z,3.73
2018-02-25T00:17:34.197Z,3.90
2018-02-25T00:20:01.647Z,5.13
2018-02-25T00:22:29.922Z,3.13
2018-02-25T00:24:57.463Z,3.70
2018-02-25T00:27:25.647Z,3.67
2018-02-25T00:29:53.118Z,3.47
2018-02-25T00:32:20.580Z,3.87
2018-02-25T00:34:48.028Z,3.53
2018-02-25T00:37:15.515Z,3.73
2018-02-25T00:39:42.952Z,3.43
2018-02-25T00:42:10.432Z,3.80
2018-02-25T00:44:38.670Z,3.70
2018-02-25T00:47:06.113Z,3.90
2018-02-25T00:49:33.573Z,4.10
2018-02-25T00:52:01.032Z,4.10
2018-02-25T00:54:28.567Z,4.13
2018-02-25T00:56:56.032Z,3.70
2018-02-25T00:59:23.482Z,4.00
2018-02-25T01:01:50.939Z,4.07
2018-02-25T01:04:18.378Z,4.70
2018-02-25T01:06:45.891Z,4.47
2018-02-25T01:09:13.329Z,4.23
2018-02-25T01:11:40.809Z,5.00
2018-02-25T01:14:08.265Z,4.70
2018-02-25T01:16:35.717Z,3.67
2018-02-25T01:19:03.170Z,4.30
2018-02-25T01:21:30.621Z,5.20
2018-02-25T01:23:58.866Z,4.83
2018-02-25T01:26:26.333Z,4.50
2018-02-25T01:28:53.798Z,4.97
2018-02-25T01:31:21.276Z,5.20
2018-02-25T01:33:48.736Z,4.40
2018-02-25T01:36:16.209Z,5.00
2018-02-25T01:38:44.459Z,4.97
2018-02-25T01:41:11.869Z,5.10
2018-02-25T01:43:39.361Z,4.93
2018-02-25T01:46:06.812Z,4.20
2018-02-25T01:48:34.269Z,4.77
2018-02-25T01:51:03.533Z,5.30
2018-02-25T01:53:30.969Z,5.17
2018-02-25T01:55:58.417Z,5.30
2018-02-25T01:58:25.870Z,4.80
2018-02-25T02:00:53.329Z,5.17
2018-02-25T02:03:21.289Z,4.87
2018-02-25T02:05:48.756Z,5.23
2018-02-25T02:08:16.225Z,5.23
2018-02-25T02:10:44.450Z,5.33
2018-02-25T02:13:11.920Z,4.77
2018-02-25T02:15:39.396Z,4.73
2018-02-25T02:18:06.841Z,5.50
2018-02-25T02:20:34.305Z,5.10
2018-02-25T02:23:05.294Z,5.53
2018-02-25T02:25:32.741Z,5.13
2018-02-25T02:28:00.201Z,5.20
2018-02-25T02:30:27.652Z,5.80
2018-02-25T02:32:55.143Z,5.60
2018-02-25T02:35:22.633Z,6.07
2018-02-25T02:37:50.085Z,6.00
2018-02-25T02:40:17.555Z,5.27
2018-02-25T02:42:46.549Z,5.40
2018-02-25T02:45:14.796Z,4.73
2018-02-25T02:47:42.276Z,6.00
2018-02-25T02:50:10.509Z,5.07
2018-02-25T02:52:37.962Z,5.40
2018-02-25T02:55:05.434Z,6.07
2018-02-25T02:57:32.893Z,5.50
2018-02-25T03:00:00.349Z,5.80
2018-02-25T03:02:27.821Z,5.53
2018-02-25T03:04:55.843Z,5.13
2018-02-25T03:07:23.329Z,5.87
2018-02-25T03:09:51.702Z,5.20
2018-02-25T03:12:19.949Z,5.67
2018-02-25T03:14:47.413Z,5.43
2018-02-25T03:17:14.966Z,5.37
2018-02-25T03:19:42.413Z,5.03
2018-02-25T03:22:09.884Z,5.27
2018-02-25T03:24:37.340Z,4.93
2018-02-25T03:27:04.830Z,5.50
2018-02-25T03:29:32.285Z,5.23
2018-02-25T03:31:59.745Z,5.40
2018-02-25T03:34:27.213Z,4.37
2018-02-25T03:36:54.688Z,4.80
2018-02-25T03:39:22.942Z,5.00
2018-02-25T03:41:50.382Z,5.00
2018-02-25T03:44:17.828Z,5.20
2018-02-25T03:46:45.297Z,5.23
2018-02-25T03:49:12.778Z,5.30
2018-02-25T03:51:40.248Z,5.27
2018-02-25T03:54:08.473Z,5.67
2018-02-25T03:56:35.947Z,5.07
2018-02-25T03:59:03.445Z,5.57
2018-02-25T04:01:31.744Z,5.47
2018-02-25T04:03:59.194Z,5.57
2018-02-25T04:06:26.647Z,6.23
2018-02-25T04:08:54.109Z,5.50
2018-02-25T04:11:21.586Z,6.00
2018-02-25T04:13:49.053Z,5.00
2018-02-25T04:16:16.503Z,5.20
2018-02-25T04:18:43.968Z,5.07
2018-02-25T04:21:11.440Z,5.90
2018-02-25T04:23:38.912Z,6.10
2018-02-25T04:26:07.212Z,5.67
2018-02-25T04:28:34.677Z,5.93
2018-02-25T04:31:02.168Z,6.13
2018-02-25T04:33:29.631Z,5.70
2018-02-25T04:35:57.078Z,5.53
2018-02-25T04:38:24.516Z,5.30
2018-02-25T04:40:51.974Z,4.50
2018-02-25T04:43:19.441Z,5.00
2018-02-25T04:45:46.898Z,5.67
2018-02-25T04:48:14.384Z,4.70
2018-02-25T04:50:41.872Z,5.30
2018-02-25T04:53:10.124Z,5.03
2018-02-25T04:55:37.626Z,5.17
2018-02-25T04:58:05.079Z,5.40
2018-02-25T05:00:32.529Z,5.80
2018-02-25T05:03:00.091Z,5.67
2018-02-25T05:05:27.576Z,6.27
2018-02-25T05:07:55.069Z,5.93
2018-02-25T05:10:23.294Z,5.93
2018-02-25T05:12:50.796Z,5.33
2018-02-25T05:15:18.241Z,5.30
2018-02-25T05:17:45.700Z,5.50
2018-02-25T05:20:13.180Z,5.27
2018-02-25T05:22:41.408Z,5.20
2018-02-25T05:25:08.861Z,5.80
2018-02-25T05:27:36.303Z,5.73
2018-02-25T05:30:03.776Z,5.87
2018-02-25T05:32:31.248Z,5.70
2018-02-25T05:34:58.717Z,5.57
2018-02-25T05:37:26.164Z,5.67
2018-02-25T05:39:53.647Z,5.43
2018-02-25T05:42:21.904Z,5.97
2018-02-25T05:44:49.349Z,5.27
2018-02-25T05:47:16.824Z,5.50
2018-02-25T05:49:44.325Z,5.37
2018-02-25T05:52:11.769Z,5.97
2018-02-25T05:54:39.224Z,6.37
2018-02-25T05:57:06.672Z,6.10
2018-02-25T05:59:34.149Z,5.73
2018-02-25T06:02:01.630Z,7.67
2018-02-25T06:04:29.095Z,6.67
2018-02-25T06:06:56.556Z,7.27
2018-02-25T06:09:24.045Z,8.87
2018-02-25T06:11:52.286Z,6.93
2018-02-25T06:14:19.761Z,8.00
2018-02-25T06:16:47.237Z,7.23
2018-02-25T06:19:15.469Z,8.83
2018-02-25T06:21:42.966Z,7.23
2018-02-25T06:24:11.189Z,7.60
2018-02-25T06:26:38.664Z,7.70
2018-02-25T06:29:06.141Z,8.37
2018-02-25T06:31:33.617Z,7.23
2018-02-25T06:34:01.870Z,7.63
2018-02-25T06:36:29.330Z,7.13
2018-02-25T06:38:56.788Z,7.57
2018-02-25T06:41:24.266Z,7.60
2018-02-25T06:43:52.503Z,7.93
2018-02-25T06:46:19.966Z,9.10
2018-02-25T06:48:47.448Z,8.83
2018-02-25T06:51:15.676Z,8.40
2018-02-25T06:53:43.134Z,8.10
2018-02-25T06:56:10.584Z,7.93
2018-02-25T06:58:38.080Z,7.30
2018-02-25T07:01:06.341Z,8.50
2018-02-25T07:03:33.787Z,8.53
2018-02-25T07:06:01.257Z,8.20
2018-02-25T07:08:28.710Z,8.53
2018-02-25T07:10:56.190Z,7.37
2018-02-25T07:13:24.443Z,8.20
2018-02-25T07:15:51.889Z,6.80
2018-02-25T07:18:19.352Z,7.73
2018-02-25T07:20:46.800Z,6.53
2018-02-25T07:23:14.250Z,7.20
2018-02-25T07:25:41.703Z,7.63
2018-02-25T07:28:09.177Z,8.07
2018-02-25T07:30:36.649Z,7.70
2018-02-25T07:33:04.157Z,8.17
2018-02-25T07:35:31.613Z,7.03
2018-02-25T07:37:59.052Z,7.53
2018-02-25T07:40:26.516Z,6.57
2018-02-25T07:42:53.994Z,6.80
2018-02-25T07:45:21.503Z,7.40
2018-02-25T07:47:49.735Z,7.17
2018-02-25T07:50:17.177Z,7.57
2018-02-25T07:52:44.636Z,7.43
2018-02-25T07:55:12.126Z,7.17
2018-02-25T07:57:39.595Z,7.57
2018-02-25T08:00:07.833Z,6.30
2018-02-25T08:02:35.285Z,6.27
2018-02-25T08:05:02.749Z,7.50
2018-02-25T08:07:30.222Z,6.13
2018-02-25T08:09:57.689Z,7.67
2018-02-25T08:12:25.149Z,6.13
2018-02-25T08:14:52.621Z,5.77
2018-02-25T08:17:20.866Z,6.17
2018-02-25T08:19:48.305Z,4.70
2018-02-25T08:22:15.777Z,5.30
2018-02-25T08:24:43.230Z,6.27
2018-02-25T08:27:10.891Z,4.77
2018-02-25T08:29:38.400Z,6.07
2018-02-25T08:32:05.845Z,5.90
2018-02-25T08:34:34.105Z,6.43
2018-02-25T08:37:01.598Z,7.10
2018-02-25T08:39:29.062Z,6.03
2018-02-25T08:41:56.529Z,5.67
2018-02-25T08:44:23.965Z,5.90
2018-02-25T08:46:51.421Z,6.43
2018-02-25T08:49:18.864Z,5.97
2018-02-25T08:51:46.334Z,6.47
2018-02-25T08:54:13.869Z,7.73
2018-02-25T08:56:41.320Z,5.43
2018-02-25T08:59:09.614Z,6.37
2018-02-25T09:01:37.820Z,7.07
2018-02-25T09:04:05.282Z,7.37
2018-02-25T09:06:32.758Z,6.60
2018-02-25T09:09:00.204Z,5.47
2018-02-25T09:11:27.700Z,5.83
2018-02-25T09:13:55.937Z,5.37
2018-02-25T09:16:23.413Z,5.20
2018-02-25T09:18:50.853Z,5.83
2018-02-25T09:21:18.318Z,5.20
2018-02-25T09:23:45.786Z,5.37
2018-02-25T09:26:13.257Z,5.93
2018-02-25T09:28:41.489Z,5.00
2018-02-25T09:31:08.948Z,5.33
2018-02-25T09:33:36.425Z,5.43
2018-02-25T09:36:03.888Z,4.77
2018-02-25T09:38:31.348Z,5.03
2018-02-25T09:40:58.810Z,5.23
2018-02-25T09:43:27.027Z,4.87
2018-02-25T09:45:54.473Z,5.13
2018-02-25T09:48:21.938Z,5.20
2018-02-25T09:50:49.434Z,4.90
2018-02-25T09:53:16.911Z,5.20
2018-02-25T09:55:45.120Z,5.57
2018-02-25T09:58:12.553Z,5.20
2018-02-25T10:00:40.814Z,5.63
2018-02-25T10:03:08.286Z,5.00
2018-02-25T10:05:36.494Z,4.50
2018-02-25T10:08:03.957Z,5.80
2018-02-25T10:10:31.412Z,5.13
2018-02-25T10:12:58.892Z,5.20
2018-02-25T10:15:26.354Z,5.20
2018-02-25T10:17:53.850Z,4.63
2018-02-25T10:20:22.057Z,5.00
2018-02-25T10:22:49.535Z,4.40
2018-02-25T10:25:17.021Z,4.40
2018-02-25T10:27:45.227Z,5.03
2018-02-25T10:30:12.685Z,4.60
2018-02-25T10:32:40.161Z,4.00
2018-02-25T10:35:07.610Z,4.67
2018-02-25T10:37:35.089Z,4.20
2018-02-25T10:40:02.531Z,4.80
2018-02-25T10:42:30.628Z,4.83
2018-02-25T10:44:58.079Z,4.27
2018-02-25T10:47:25.517Z,4.27
2018-02-25T10:49:52.990Z,4.60
2018-02-25T10:52:20.470Z,4.33
2018-02-25T10:54:47.937Z,4.30
2018-02-25T10:57:16.175Z,4.23
2018-02-25T10:59:43.642Z,4.47
2018-02-25T11:02:11.114Z,4.43
2018-02-25T11:04:39.352Z,3.77
2018-02-25T11:07:06.786Z,3.73
2018-02-25T11:09:34.274Z,3.57
2018-02-25T11:12:01.741Z,3.33
2018-02-25T11:14:29.201Z,3.70
2018-02-25T11:16:56.943Z,4.00
2018-02-25T11:19:24.408Z,3.50
2018-02-25T11:21:51.884Z,3.77
2018-02-25T11:24:19.344Z,4.90
2018-02-25T11:26:46.795Z,4.23
2018-02-25T11:29:14.875Z,3.40
2018-02-25T11:31:42.413Z,3.87
2018-02-25T11:34:10.576Z,3.53
2018-02-25T11:36:38.066Z,4.10
2018-02-25T11:39:05.487Z,3.63
2018-02-25T11:41:32.988Z,3.67
2018-02-25T11:44:01.201Z,3.90
2018-02-25T11:46:28.689Z,3.43
2018-02-25T11:48:56.140Z,3.50
2018-02-25T11:51:23.612Z,3.60
2018-02-25T11:53:51.030Z,3.27
2018-02-25T11:56:18.521Z,3.10
2018-02-25T11:58:45.968Z,3.23
2018-02-25T12:01:13.438Z,2.93
2018-02-25T12:03:40.900Z,3.30
2018-02-25T12:06:08.362Z,3.77
2018-02-25T12:08:35.805Z,3.90
2018-02-25T12:11:03.270Z,5.87
2018-02-25T12:13:30.736Z,4.73
2018-02-25T12:15:58.945Z,3.10
2018-02-25T12:18:26.401Z,2.50
2018-02-25T12:20:53.849Z,6.00
2018-02-25T12:23:21.346Z,4.50
2018-02-25T12:25:48.809Z,4.73
2018-02-25T12:28:16.257Z,3.50
2018-02-25T12:30:43.729Z,3.57
2018-02-25T12:33:11.187Z,3.50
2018-02-25T12:35:38.703Z,3.87
2018-02-25T12:38:06.176Z,3.40
2018-02-25T12:40:33.627Z,3.40
2018-02-25T12:43:01.084Z,3.33
2018-02-25T12:45:28.546Z,7.47
2018-02-25T12:47:55.998Z,5.33
2018-02-25T12:50:23.449Z,3.40
2018-02-25T12:52:50.944Z,3.33
2018-02-25T12:55:18.365Z,3.13
2018-02-25T12:57:45.821Z,3.30
2018-02-25T13:00:13.266Z,3.30
2018-02-25T13:02:40.721Z,6.07
2018-02-25T13:05:08.173Z,3.70
2018-02-25T13:07:35.641Z,3.63
2018-02-25T13:10:03.081Z,4.80
2018-02-25T13:12:30.554Z,3.13
2018-02-25T13:14:58.037Z,3.17
2018-02-25T13:17:25.512Z,3.10
2018-02-25T13:19:52.972Z,3.67
2018-02-25T13:22:20.449Z,3.00
2018-02-25T13:24:48.652Z,2.93
2018-02-25T13:27:16.118Z,3.13
2018-02-25T13:29:43.606Z,3.47
2018-02-25T13:32:11.077Z,2.70
2018-02-25T13:34:39.326Z,2.90
2018-02-25T13:37:06.777Z,2.63
2018-02-25T13:39:34.232Z,2.80
2018-02-25T13:42:01.721Z,3.00
2018-02-25T13:44:29.173Z,2.70
2018-02-25T13:46:56.676Z,2.60
2018-02-25T13:49:24.170Z,2.77
2018-02-25T13:51:51.622Z,2.80
2018-02-25T13:54:19.828Z,3.10
2018-02-25T13:56:48.070Z,2.80
2018-02-25T13:59:15.545Z,2.70
2018-02-25T14:01:42.993Z,3.70
2018-02-25T14:04:10.461Z,4.73
2018-02-25T14:06:37.910Z,2.97
2018-02-25T14:09:05.441Z,2.40
2018-02-25T14:11:32.910Z,2.53
2018-02-25T14:14:00.789Z,2.60
2018-02-25T14:16:28.237Z,2.60
2018-02-25T14:18:55.730Z,2.17
2018-02-25T14:21:23.976Z,2.20
2018-02-25T14:23:52.177Z,2.57
2018-02-25T14:26:20.391Z,3.70
2018-02-25T14:28:47.850Z,3.77
2018-02-25T14:31:15.331Z,2.50
2018-02-25T14:33:42.803Z,2.63
2018-02-25T14:36:11.062Z,2.63
2018-02-25T14:38:38.522Z,3.73
2018-02-25T14:41:05.958Z,2.80
2018-02-25T14:43:33.424Z,3.20
2018-02-25T14:46:00.880Z,3.07
2018-02-25T14:48:29.124Z,3.10
2018-02-25T14:50:56.582Z,2.80
2018-02-25T14:53:24.091Z,4.40
2018-02-25T14:55:51.520Z,2.43
2018-02-25T14:58:18.975Z,2.70
2018-02-25T15:00:46.515Z,2.63
2018-02-25T15:03:14.024Z,3.13
2018-02-25T15:05:41.498Z,3.10
2018-02-25T15:08:09.745Z,3.07
2018-02-25T15:10:37.232Z,2.30
2018-02-25T15:13:05.463Z,2.20
2018-02-25T15:15:32.928Z,3.17
2018-02-25T15:18:00.368Z,2.50
2018-02-25T15:20:27.861Z,3.10
2018-02-25T15:22:55.344Z,2.67
2018-02-25T15:25:22.814Z,2.40
2018-02-25T15:27:50.261Z,2.40
2018-02-25T15:30:17.755Z,2.30
2018-02-25T15:32:45.230Z,2.70
2018-02-25T15:35:12.693Z,3.13
2018-02-25T15:37:40.160Z,2.60
2018-02-25T15:40:07.618Z,2.30
2018-02-25T15:42:35.092Z,2.60
2018-02-25T15:45:03.311Z,2.43
2018-02-25T15:47:30.748Z,2.70
2018-02-25T15:49:58.216Z,2.30
2018-02-25T15:52:25.671Z,2.53
2018-02-25T15:54:53.123Z,3.17
2018-02-25T15:57:20.578Z,2.70
2018-02-25T15:59:48.044Z,2.90
2018-02-25T16:02:15.489Z,2.77
2018-02-25T16:04:42.910Z,2.53
2018-02-25T16:07:11.131Z,3.10
2018-02-25T16:09:38.581Z,2.53
2018-02-25T16:12:06.029Z,3.70
2018-02-25T16:14:33.512Z,2.33
2018-02-25T16:17:00.947Z,2.77
2018-02-25T16:19:28.408Z,2.27
2018-02-25T16:21:55.893Z,2.53
2018-02-25T16:24:23.359Z,3.07
2018-02-25T16:26:50.818Z,2.50
2018-02-25T16:29:18.285Z,3.07
2018-02-25T16:31:46.529Z,3.40
2018-02-25T16:34:13.977Z,3.03
2018-02-25T16:36:41.547Z,6.03
2018-02-25T16:39:08.996Z,3.50
2018-02-25T16:41:36.453Z,3.40
2018-02-25T16:44:03.945Z,3.57
2018-02-25T16:46:32.172Z,2.67
2018-02-25T16:48:59.640Z,3.00
2018-02-25T16:51:27.101Z,3.50
2018-02-25T16:53:54.562Z,3.20
2018-02-25T16:56:22.023Z,3.07
2018-02-25T16:58:50.393Z,3.20
2018-02-25T17:01:17.951Z,3.90
2018-02-25T17:03:45.458Z,4.27
2018-02-25T17:06:13.811Z,3.07
2018-02-25T17:08:41.346Z,4.50
2018-02-25T17:11:09.120Z,4.70
2018-02-25T17:13:36.604Z,9.13
2018-02-25T17:16:04.808Z,12.83
2018-02-25T17:18:32.268Z,10.10
2018-02-25T17:20:59.725Z,5.50
2018-02-25T17:23:27.192Z,4.90
2018-02-25T17:25:54.696Z,4.13
2018-02-25T17:28:22.144Z,3.40
2018-02-25T17:30:49.591Z,3.77
2018-02-25T17:33:17.079Z,5.97
2018-02-25T17:35:45.335Z,4.00
2018-02-25T17:38:12.922Z,6.13
2018-02-25T17:40:41.001Z,3.20
2018-02-25T17:43:08.686Z,4.47
2018-02-25T17:45:36.315Z,3.13
2018-02-25T17:48:03.823Z,2.90
2018-02-25T17:50:31.394Z,3.27
2018-02-25T17:52:59.190Z,2.80
2018-02-25T17:55:33.566Z,2.93
2018-02-25T17:57:55.905Z,3.40
2018-02-25T18:00:23.429Z,2.50
2018-02-25T18:02:50.889Z,3.53
2018-02-25T18:05:18.340Z,3.20
2018-02-25T18:07:45.820Z,3.00
2018-02-25T18:10:13.285Z,2.83
2018-02-25T18:12:40.752Z,2.80
2018-02-25T18:15:08.229Z,2.73
2018-02-25T18:17:36.487Z,2.33
2018-02-25T18:20:03.952Z,2.17
2018-02-25T18:22:31.413Z,2.47
2018-02-25T18:24:58.897Z,2.57
2018-02-25T18:27:26.413Z,2.30
2018-02-25T18:29:53.899Z,2.30
2018-02-25T18:32:22.154Z,2.03
2018-02-25T18:34:49.621Z,2.60
2018-02-25T18:37:17.083Z,3.50
2018-02-25T18:39:45.314Z,4.47
2018-02-25T18:42:12.782Z,2.23
2018-02-25T18:44:40.250Z,2.60
2018-02-25T18:47:07.766Z,3.33
2018-02-25T18:49:35.193Z,2.60
2018-02-25T18:52:03.411Z,3.93
2018-02-25T18:54:30.923Z,3.20
2018-02-25T18:56:59.186Z,2.63
2018-02-25T18:59:26.654Z,3.03
2018-02-25T19:01:54.891Z,3.27
2018-02-25T19:04:22.361Z,3.60
2018-02-25T19:06:49.844Z,3.10
2018-02-25T19:09:18.103Z,4.37
2018-02-25T19:11:45.633Z,3.57
2018-02-25T19:14:13.161Z,2.47
2018-02-25T19:16:40.698Z,2.53
2018-02-25T19:19:09.786Z,3.03
2018-02-25T19:21:38.104Z,2.63
2018-02-25T19:24:05.978Z,2.97
2018-02-25T19:26:33.733Z,3.10
2018-02-25T19:29:01.268Z,2.77
2018-02-25T19:31:28.789Z,3.30
2018-02-25T19:33:56.612Z,4.10
2018-02-25T19:36:29.719Z,2.93
2018-02-25T19:39:03.053Z,3.57
2018-02-25T19:41:36.890Z,4.60
2018-02-25T19:44:04.424Z,3.57
2018-02-25T19:46:31.934Z,2.97
2018-02-25T19:48:59.423Z,2.93
2018-02-25T19:51:26.970Z,3.77
2018-02-25T19:53:54.491Z,3.00
2018-02-25T19:56:22.129Z,3.67
2018-02-25T19:58:49.670Z,4.80
2018-02-25T20:01:17.933Z,3.60
2018-02-25T20:03:45.433Z,2.60
2018-02-25T20:06:12.937Z,2.97
2018-02-25T20:08:40.480Z,3.23
2018-02-25T20:11:07.959Z,3.13
2018-02-25T20:13:35.454Z,2.77
2018-02-25T20:16:02.994Z,3.07
2018-02-25T20:18:31.269Z,2.83
2018-02-25T20:21:02.689Z,3.67
2018-02-25T20:23:30.178Z,3.63
2018-02-25T20:25:59.166Z,3.27
2018-02-25T20:28:27.406Z,3.70
2018-02-25T20:30:55.362Z,3.50
2018-02-25T20:33:23.774Z,3.03
2018-02-25T20:35:51.271Z,3.10
2018-02-25T20:38:18.754Z,2.90
2018-02-25T20:40:46.267Z,2.73
2018-02-25T20:43:15.395Z,3.33
2018-02-25T20:45:42.867Z,2.83
2018-02-25T20:48:10.410Z,3.27
2018-02-25T20:50:38.446Z,2.90
2018-02-25T20:53:06.742Z,3.07
2018-02-25T20:55:35.002Z,2.93
2018-02-25T20:58:03.247Z,3.10
2018-02-25T21:00:31.962Z,2.60
2018-02-25T21:03:00.264Z,3.17
2018-02-25T21:05:27.743Z,3.17
2018-02-25T21:07:56.508Z,3.13
2018-02-25T21:10:23.990Z,2.90
2018-02-25T21:12:51.482Z,3.10
2018-02-25T21:15:18.993Z,3.10
2018-02-25T21:17:46.468Z,2.57
2018-02-25T21:20:14.007Z,3.50
2018-02-25T21:22:41.467Z,2.80
2018-02-25T21:25:09.003Z,3.17
2018-02-25T21:27:36.474Z,3.00
2018-02-25T21:30:04.049Z,2.97
2018-02-25T21:32:31.527Z,3.03
2018-02-25T21:34:59.035Z,2.93
2018-02-25T21:37:26.525Z,3.03
2018-02-25T21:39:54.055Z,2.67
2018-02-25T21:42:21.571Z,3.23
2018-02-25T21:44:49.025Z,2.30
2018-02-25T21:47:16.821Z,3.10
2018-02-25T21:49:44.302Z,3.00
2018-02-25T21:52:11.780Z,2.93
2018-02-25T21:54:45.028Z,2.77
2018-02-25T22:00:14.368Z,3.40
2018-02-25T22:02:47.486Z,3.27
2018-02-25T22:05:14.947Z,3.13
2018-02-25T22:07:42.434Z,2.57
2018-02-25T22:10:10.662Z,2.90
2018-02-25T22:12:38.092Z,2.90
2018-02-25T22:15:05.580Z,3.00
2018-02-25T22:17:33.084Z,2.90
2018-02-25T22:20:01.332Z,3.40
2018-02-25T22:22:28.830Z,3.57
2018-02-25T22:24:56.293Z,3.17
2018-02-25T22:27:23.761Z,3.27
2018-02-25T22:29:51.253Z,2.80
2018-02-25T22:32:18.718Z,3.03
2018-02-25T22:34:46.174Z,3.13
2018-02-25T22:37:13.628Z,3.50
2018-02-25T22:39:41.110Z,2.87
2018-02-25T22:42:09.378Z,2.83
2018-02-25T22:44:37.608Z,3.03
2018-02-25T22:47:06.073Z,3.90
2018-02-25T22:49:33.536Z,3.40
2018-02-25T22:52:00.988Z,3.47
2018-02-25T22:54:28.432Z,3.50
2018-02-25T22:56:55.912Z,3.13
2018-02-25T22:59:23.365Z,2.73
2018-02-25T23:01:50.837Z,3.37
2018-02-25T23:04:18.313Z,3.40
2018-02-25T23:06:45.784Z,3.37
2018-02-25T23:09:13.260Z,3.70
2018-02-25T23:11:41.465Z,3.20
2018-02-25T23:14:08.924Z,3.10
2018-02-25T23:16:36.374Z,3.87
2018-02-25T23:19:03.834Z,2.97
2018-02-25T23:21:31.305Z,3.63
2018-02-25T23:23:58.760Z,4.23
2018-02-25T23:26:26.200Z,4.07
2018-02-25T23:28:53.643Z,3.67
2018-02-25T23:31:21.118Z,3.90
2018-02-25T23:33:48.608Z,3.50
2018-02-25T23:36:16.061Z,3.57
2018-02-25T23:38:43.524Z,3.90
2018-02-25T23:41:10.969Z,4.30
2018-02-25T23:43:38.408Z,3.60
2018-02-25T23:46:05.884Z,4.20
2018-02-25T23:48:33.327Z,3.60
2018-02-25T23:51:00.781Z,3.60
2018-02-25T23:53:28.243Z,3.67
2018-02-25T23:55:55.707Z,3.50
2018-02-25T23:58:23.149Z,4.00
